Flight Number: AVA1751 Duration: 2:00
Departure: Minsk Intl (UMMS) at 13:00 Distance: 738.045 Nm
Arrival: Frankfurt am Main (EDDF) at 15:00 Equipment: A321

Weather Information
Minsk, Belarus (UMMS) 53-56N 027-38E 231M Feb 27, 2024 - 12:00 PM EST / 2024.02.27 1700 UTC
Wind: from the SSE (160 degrees) at 13 MPH (12 KT):0
Visibility: greater than 7 mile(s):0 Temperature: 44 F (7 C) Dew Point: 33 F (1 C) Relative Humidity: 65% Pressure (altimeter): 30.09 in. Hg (1019 hPa)
ob: UMMS 271700Z 16006MPS CAVOK 07/01 Q1019 NOSIG cycle: 17
Sunrise: 05:04 Sunset: 15:36 (UTC)

Frankfurt / M-Flughafen, Germany (EDDF) 50-03N 008-36E 113M Feb 27, 2024 - 12:20 PM EST / 2024.02.27 1720 UTC
Wind: from the NNE (020 degrees) at 9 MPH (8 KT):0
Visibility: greater than 7 mile(s):0 Temperature: 50 F (10 C) Dew Point: 39 F (4 C) Relative Humidity: 66% Pressure (altimeter): 29.97 in. Hg (1015 hPa)
ob: EDDF 271720Z AUTO 02008KT CAVOK 10/04 Q1015 NOSIG cycle: 17
Sunrise: 06:16 Sunset: 17:00 (UTC)

TAF:2024/02/27 18:28 TAF EDDF 271700Z 2718/2824 02010KT CAVOK BECMG 2720/2722 02005KT PROB30 TEMPO 2803/2808 2000 BCFG BECMG 2812/2814 VRB03KT

This route has never been flown.

Route map